METAR Data
IDs: Format: Raw Decoded Include TAF

Data at: 2143 UTC 20 Jun 2019

METAR for:KTAD (Trinidad/Stokes Arpt, CO, US)
Text:KTAD 202054Z AUTO 21017G24KT 10SM CLR 34/M02 A2985 RMK AO2 PK WND 15030/2005 SLP009 T03441017 58021
Temperature: 34.4°C ( 94°F)
Dewpoint: -1.7°C ( 29°F) [RH = 10%]
Pressure (altimeter):29.85 inches Hg (1010.9 mb) [Sea level pressure: 1000.9 mb]
Winds:from the SSW (210 degrees) at 20 MPH (17 knots; 8.7 m/s) gusting to 28 MPH (24 knots; 12.3 m/s)
Visibility:10 or more sm (16+ km)
Ceiling:at least 12,000 feet AGL
Clouds:sky clear below 12,000 feet AGL
QC Flag:automated observation with no human augmentation